createdAt,value
2023-03-14T00:01:17.516Z,9.81
2023-03-14T00:03:46.079Z,9.80
2023-03-14T00:06:15.648Z,9.78
2023-03-14T00:08:46.343Z,9.72
2023-03-14T00:11:18.065Z,9.69
2023-03-14T00:13:53.678Z,9.69
2023-03-14T00:16:22.718Z,9.72
2023-03-14T00:18:51.635Z,9.73
2023-03-14T00:21:20.939Z,9.75
2023-03-14T00:23:49.710Z,9.77
2023-03-14T00:26:20.763Z,9.81
2023-03-14T00:28:53.977Z,9.83
2023-03-14T00:31:23.081Z,9.84
2023-03-14T00:33:54.537Z,9.84
2023-03-14T00:36:23.770Z,9.84
2023-03-14T00:38:53.279Z,9.84
2023-03-14T00:41:25.845Z,9.83
2023-03-14T00:43:55.085Z,9.82
2023-03-14T00:46:23.916Z,9.81
2023-03-14T00:48:53.706Z,9.80
2023-03-14T00:51:22.339Z,9.78
2023-03-14T00:53:52.055Z,9.73
2023-03-14T00:56:21.145Z,9.69
2023-03-14T00:58:49.932Z,9.66
2023-03-14T01:01:20.371Z,9.66
2023-03-14T01:03:52.668Z,9.68
2023-03-14T01:06:24.333Z,9.76
2023-03-14T01:08:53.866Z,9.84
2023-03-14T01:11:28.636Z,9.93
2023-03-14T01:13:57.611Z,10.00
2023-03-14T01:16:28.077Z,10.05
2023-03-14T01:18:56.856Z,10.06
2023-03-14T01:21:31.971Z,10.08
2023-03-14T01:24:01.881Z,10.11
2023-03-14T01:26:33.671Z,10.14
2023-03-14T01:29:03.110Z,10.19
2023-03-14T01:31:31.967Z,10.23
2023-03-14T01:34:00.831Z,10.24
2023-03-14T01:36:31.709Z,10.23
2023-03-14T01:39:01.897Z,10.22
2023-03-14T01:41:30.981Z,10.20
2023-03-14T01:44:00.692Z,10.19
2023-03-14T01:46:38.011Z,10.16
2023-03-14T01:49:29.495Z,10.10
2023-03-14T01:52:06.939Z,10.02
2023-03-14T01:54:43.439Z,9.97
2023-03-14T01:57:46.654Z,9.90
2023-03-14T02:00:22.444Z,9.81
2023-03-14T02:06:08.541Z,9.60
2023-03-14T02:08:41.621Z,9.50
2023-03-14T02:11:18.741Z,9.45
2023-03-14T02:14:06.100Z,9.39
2023-03-14T02:17:13.796Z,9.31
2023-03-14T02:20:12.728Z,9.25
2023-03-14T02:22:46.263Z,9.22
2023-03-14T02:25:38.021Z,9.20
2023-03-14T02:28:07.137Z,9.20
2023-03-14T02:30:37.041Z,9.21
2023-03-14T02:33:12.588Z,9.22
2023-03-14T02:35:47.645Z,9.23
2023-03-14T02:38:19.483Z,9.28
2023-03-14T02:40:48.745Z,9.36
2023-03-14T02:43:18.287Z,9.42
2023-03-14T02:45:52.858Z,9.46
2023-03-14T02:49:06.454Z,9.49
2023-03-14T02:51:35.625Z,9.48
2023-03-14T02:54:04.423Z,9.47
2023-03-14T02:56:34.018Z,9.45
2023-03-14T02:59:06.603Z,9.43
2023-03-14T03:01:48.304Z,9.42
2023-03-14T03:04:17.182Z,9.40
2023-03-14T03:06:48.325Z,9.39
2023-03-14T03:09:17.306Z,9.38
2023-03-14T03:11:45.884Z,9.39
2023-03-14T03:14:19.000Z,9.38
2023-03-14T03:16:47.714Z,9.38
2023-03-14T03:19:18.296Z,9.42
2023-03-14T03:21:46.879Z,9.45
2023-03-14T03:24:15.889Z,9.49
2023-03-14T03:26:44.668Z,9.54
2023-03-14T03:29:13.456Z,9.57
2023-03-14T03:31:42.449Z,9.60
2023-03-14T03:34:11.665Z,9.61
2023-03-14T03:36:41.043Z,9.62
2023-03-14T03:39:09.654Z,9.62
2023-03-14T03:41:38.310Z,9.64
2023-03-14T03:44:07.535Z,9.65
2023-03-14T03:46:36.416Z,9.66
2023-03-14T03:49:05.098Z,9.67
2023-03-14T03:51:34.332Z,9.67
2023-03-14T03:54:03.277Z,9.67
2023-03-14T03:56:34.623Z,9.66
2023-03-14T03:59:03.309Z,9.65
2023-03-14T04:01:32.008Z,9.66
2023-03-14T04:04:01.200Z,9.67
2023-03-14T04:06:30.627Z,9.69
2023-03-14T04:09:01.257Z,9.72
2023-03-14T04:11:38.952Z,9.77
2023-03-14T04:14:27.887Z,9.82
2023-03-14T04:17:21.617Z,9.89
2023-03-14T04:19:52.753Z,9.96
2023-03-14T04:22:22.836Z,10.03
2023-03-14T04:24:53.207Z,10.07
2023-03-14T04:27:22.865Z,10.08
2023-03-14T04:29:51.857Z,10.08
2023-03-14T04:32:27.551Z,10.09
2023-03-14T04:34:57.404Z,10.08
2023-03-14T04:37:26.027Z,10.08
2023-03-14T04:39:54.990Z,10.06
2023-03-14T04:42:28.883Z,10.05
2023-03-14T04:44:57.773Z,10.07
2023-03-14T04:47:29.261Z,10.10
2023-03-14T04:49:57.811Z,10.11
2023-03-14T04:52:28.256Z,10.09
2023-03-14T04:54:57.536Z,10.05
2023-03-14T04:57:27.877Z,10.01
2023-03-14T04:59:57.380Z,9.96
2023-03-14T05:02:49.689Z,9.89
2023-03-14T05:05:36.411Z,9.82
2023-03-14T05:08:18.739Z,9.77
2023-03-14T05:11:01.734Z,9.72
2023-03-14T05:13:41.791Z,9.70
2023-03-14T05:16:46.138Z,9.68
2023-03-14T05:19:47.465Z,9.62
2023-03-14T05:22:31.196Z,9.55
2023-03-14T05:25:22.850Z,9.50
2023-03-14T05:28:17.854Z,9.49
2023-03-14T05:30:54.825Z,9.49
2023-03-14T05:33:45.092Z,9.51
2023-03-14T05:36:31.296Z,9.54
2023-03-14T05:39:20.173Z,9.55
2023-03-14T05:41:58.788Z,9.55
2023-03-14T05:44:30.342Z,9.55
2023-03-14T05:47:26.369Z,9.57
2023-03-14T05:50:14.733Z,9.59
2023-03-14T05:53:21.784Z,9.60
2023-03-14T05:55:59.276Z,9.62
2023-03-14T05:58:38.006Z,9.64
2023-03-14T06:01:10.797Z,9.67
2023-03-14T06:04:00.618Z,9.68
2023-03-14T06:06:29.957Z,9.69
2023-03-14T06:09:00.894Z,9.70
2023-03-14T06:11:31.825Z,9.69
2023-03-14T06:14:00.819Z,9.72
2023-03-14T06:16:29.712Z,9.77
2023-03-14T06:18:58.645Z,9.84
2023-03-14T06:21:27.794Z,9.92
2023-03-14T06:23:56.805Z,9.99
2023-03-14T06:26:26.625Z,10.07
2023-03-14T06:28:55.928Z,10.10
2023-03-14T06:31:24.716Z,10.11
2023-03-14T06:33:57.960Z,10.10
2023-03-14T06:36:29.747Z,10.08
2023-03-14T06:38:58.841Z,10.08
2023-03-14T06:41:28.241Z,10.09
2023-03-14T06:43:57.138Z,10.09
2023-03-14T06:46:26.184Z,10.09
2023-03-14T06:48:55.561Z,10.08
2023-03-14T06:51:24.849Z,10.07
2023-03-14T06:53:53.624Z,10.05
2023-03-14T06:56:24.073Z,10.04
2023-03-14T06:58:53.359Z,10.03
2023-03-14T07:01:27.540Z,10.01
2023-03-14T07:03:58.542Z,10.00
2023-03-14T07:06:31.073Z,10.00
2023-03-14T07:08:59.869Z,9.98
2023-03-14T07:11:28.645Z,9.95
2023-03-14T07:13:57.432Z,9.92
2023-03-14T07:16:30.144Z,9.89
2023-03-14T07:18:59.120Z,9.86
2023-03-14T07:21:28.405Z,9.83
2023-03-14T07:23:57.294Z,9.81
2023-03-14T07:26:26.395Z,9.79
2023-03-14T07:28:55.278Z,9.77
2023-03-14T07:31:25.745Z,9.76
2023-03-14T07:33:54.806Z,9.76
2023-03-14T07:36:23.906Z,9.75
2023-03-14T07:38:53.815Z,9.75
2023-03-14T07:41:45.433Z,9.76
2023-03-14T07:44:29.485Z,9.75
2023-03-14T07:46:58.393Z,9.74
2023-03-14T07:49:27.162Z,9.73
2023-03-14T07:51:55.952Z,9.73
2023-03-14T07:54:26.299Z,9.72
2023-03-14T07:56:54.956Z,9.69
2023-03-14T07:59:23.852Z,9.66
2023-03-14T08:01:53.875Z,9.64
2023-03-14T08:04:22.561Z,9.63
2023-03-14T08:06:51.449Z,9.61
2023-03-14T08:09:20.233Z,9.59
2023-03-14T08:11:49.458Z,9.58
2023-03-14T08:14:18.733Z,9.57
2023-03-14T08:16:47.524Z,9.57
2023-03-14T08:19:16.512Z,9.53
2023-03-14T08:21:46.322Z,9.51
2023-03-14T08:24:15.423Z,9.47
2023-03-14T08:26:44.106Z,9.45
2023-03-14T08:29:14.333Z,9.43
2023-03-14T08:31:45.260Z,9.42
2023-03-14T08:34:15.385Z,9.41
2023-03-14T08:36:44.377Z,9.39
2023-03-14T08:39:13.533Z,9.40
2023-03-14T08:41:44.202Z,9.42
2023-03-14T08:44:12.930Z,9.44
2023-03-14T08:46:41.869Z,9.45
2023-03-14T08:49:10.566Z,9.47
2023-03-14T08:51:40.577Z,9.50
2023-03-14T08:54:12.640Z,9.55
2023-03-14T08:56:41.748Z,9.60
2023-03-14T08:59:12.759Z,9.68
2023-03-14T09:01:42.742Z,9.74
2023-03-14T09:04:11.428Z,9.78
2023-03-14T09:06:40.490Z,9.80
2023-03-14T09:09:09.362Z,9.81
2023-03-14T09:11:38.054Z,9.81
2023-03-14T09:14:07.350Z,9.81
2023-03-14T09:16:36.292Z,9.80
2023-03-14T09:19:05.136Z,9.81
2023-03-14T09:21:34.132Z,9.83
2023-03-14T09:24:03.319Z,9.85
2023-03-14T09:26:32.953Z,9.87
2023-03-14T09:29:01.608Z,9.90
2023-03-14T09:31:30.964Z,9.92
2023-03-14T09:33:59.720Z,9.92
2023-03-14T09:36:29.009Z,9.92
2023-03-14T09:38:57.814Z,9.92
2023-03-14T09:41:29.669Z,9.94
2023-03-14T09:44:26.404Z,9.95
2023-03-14T09:46:58.896Z,9.97
2023-03-14T09:49:34.428Z,9.98
2023-03-14T09:52:25.518Z,10.01
2023-03-14T09:55:04.449Z,10.04
2023-03-14T09:57:35.385Z,10.08
2023-03-14T10:00:16.152Z,10.13
2023-03-14T10:02:52.927Z,10.18
2023-03-14T10:05:25.022Z,10.23
2023-03-14T10:07:53.781Z,10.28
2023-03-14T10:10:25.674Z,10.34
2023-03-14T10:13:12.871Z,10.39
2023-03-14T10:15:42.841Z,10.46
2023-03-14T10:18:15.551Z,10.50
2023-03-14T10:20:51.927Z,10.55
2023-03-14T10:23:26.475Z,10.59
2023-03-14T10:26:09.132Z,10.66
2023-03-14T10:28:56.574Z,10.75
2023-03-14T10:31:28.452Z,10.83
2023-03-14T10:34:02.974Z,10.90
2023-03-14T10:36:34.321Z,10.97
2023-03-14T10:39:34.034Z,11.03
2023-03-14T10:42:36.211Z,11.11
2023-03-14T10:45:27.816Z,11.19
2023-03-14T10:48:01.066Z,11.27
2023-03-14T10:50:31.763Z,11.33
2023-03-14T10:53:06.715Z,11.40
2023-03-14T10:55:43.942Z,11.47
2023-03-14T10:58:32.607Z,11.53
2023-03-14T11:01:13.928Z,11.60
2023-03-14T11:03:45.479Z,11.66
2023-03-14T11:06:30.628Z,11.71
2023-03-14T11:09:29.109Z,11.75
2023-03-14T11:12:05.476Z,11.79
2023-03-14T11:14:40.497Z,11.84
2023-03-14T11:17:23.032Z,11.90
2023-03-14T11:20:09.522Z,11.97
2023-03-14T11:22:52.229Z,12.05
2023-03-14T11:25:46.494Z,12.15
2023-03-14T11:28:37.552Z,12.27
2023-03-14T11:31:29.925Z,12.38
2023-03-14T11:34:40.650Z,12.45
2023-03-14T11:37:19.298Z,12.48
2023-03-14T11:39:55.851Z,12.51
2023-03-14T11:42:25.972Z,12.56
2023-03-14T11:44:58.193Z,12.61
2023-03-14T11:47:37.695Z,12.67
2023-03-14T11:50:23.305Z,12.72
2023-03-14T11:52:55.712Z,12.78
2023-03-14T11:55:28.877Z,12.86
2023-03-14T11:58:04.171Z,12.93
2023-03-14T12:00:35.393Z,12.99
2023-03-14T12:03:12.879Z,13.01
2023-03-14T12:06:02.871Z,13.02
2023-03-14T12:08:37.912Z,13.02
2023-03-14T12:11:33.811Z,13.00
2023-03-14T12:14:02.605Z,12.97
2023-03-14T12:16:42.133Z,12.94
2023-03-14T12:19:23.008Z,12.91
2023-03-14T12:22:28.820Z,12.91
2023-03-14T12:25:05.572Z,12.88
2023-03-14T12:27:57.319Z,12.84
2023-03-14T12:30:31.469Z,12.77
2023-03-14T12:33:18.709Z,12.73
2023-03-14T12:35:58.899Z,12.71
2023-03-14T12:38:53.499Z,12.70
2023-03-14T12:41:37.605Z,12.68
2023-03-14T12:44:31.292Z,12.67
2023-03-14T12:47:21.954Z,12.65
2023-03-14T12:49:52.401Z,12.63
2023-03-14T12:52:25.181Z,12.62
2023-03-14T12:55:02.271Z,12.62
2023-03-14T12:57:33.928Z,12.64
2023-03-14T13:00:24.816Z,12.64
2023-03-14T13:02:53.719Z,12.65
2023-03-14T13:05:26.330Z,12.66
2023-03-14T13:07:55.817Z,12.65
2023-03-14T13:10:25.396Z,12.63
2023-03-14T13:13:13.153Z,12.60
2023-03-14T13:15:44.139Z,12.56
2023-03-14T13:18:15.898Z,12.54
2023-03-14T13:21:21.267Z,12.52
2023-03-14T13:24:08.373Z,12.51
2023-03-14T13:26:39.503Z,12.48
2023-03-14T13:29:21.533Z,12.47
2023-03-14T13:32:00.150Z,12.46
2023-03-14T13:34:35.572Z,12.45
2023-03-14T13:37:04.407Z,12.43
2023-03-14T13:39:34.356Z,12.37
2023-03-14T13:42:04.088Z,12.30
2023-03-14T13:44:34.096Z,12.25
2023-03-14T13:47:05.997Z,12.19
2023-03-14T13:49:37.127Z,12.15
2023-03-14T13:52:26.305Z,12.09
2023-03-14T13:54:59.307Z,12.05
2023-03-14T13:57:28.188Z,12.03
2023-03-14T14:00:10.425Z,12.02
2023-03-14T14:02:39.981Z,11.99
2023-03-14T14:05:12.908Z,11.97
2023-03-14T14:07:42.018Z,11.94
2023-03-14T14:10:13.536Z,11.92
2023-03-14T14:12:52.241Z,11.89
2023-03-14T14:15:24.141Z,11.86
2023-03-14T14:17:56.368Z,11.85
2023-03-14T14:20:51.789Z,11.84
2023-03-14T14:23:27.117Z,11.86
2023-03-14T14:25:58.971Z,11.91
2023-03-14T14:28:33.730Z,11.96
2023-03-14T14:31:21.258Z,12.01
2023-03-14T14:34:00.514Z,12.03
2023-03-14T14:36:41.228Z,12.08
2023-03-14T14:39:22.422Z,12.12
2023-03-14T14:41:52.639Z,12.15
2023-03-14T14:44:35.688Z,12.18
2023-03-14T14:47:05.815Z,12.20
2023-03-14T14:49:35.694Z,12.22
2023-03-14T14:52:20.990Z,12.26
2023-03-14T14:55:00.309Z,12.31
2023-03-14T14:57:39.955Z,12.37
2023-03-14T15:00:14.650Z,12.43
2023-03-14T15:02:48.172Z,12.49
2023-03-14T15:05:21.651Z,12.56
2023-03-14T15:07:51.569Z,12.66
2023-03-14T15:10:24.381Z,12.75
2023-03-14T15:12:53.592Z,12.83
2023-03-14T15:15:22.775Z,12.91
2023-03-14T15:17:51.649Z,12.97
2023-03-14T15:20:23.811Z,13.00
2023-03-14T15:22:53.007Z,13.02
2023-03-14T15:25:43.851Z,13.02
2023-03-14T15:28:22.953Z,13.01
2023-03-14T15:30:58.000Z,13.01
2023-03-14T15:33:28.412Z,13.04
2023-03-14T15:35:58.687Z,13.08
2023-03-14T15:38:28.458Z,13.16
2023-03-14T15:40:57.221Z,13.23
2023-03-14T15:43:27.278Z,13.28
2023-03-14T15:45:58.479Z,13.30
2023-03-14T15:48:27.821Z,13.27
2023-03-14T15:50:56.478Z,13.21
2023-03-14T15:53:25.472Z,13.10
2023-03-14T15:55:54.256Z,13.00
2023-03-14T15:58:23.373Z,12.89
2023-03-14T16:00:52.638Z,12.78
2023-03-14T16:03:21.854Z,12.70
2023-03-14T16:05:50.953Z,12.64
2023-03-14T16:08:20.031Z,12.62
2023-03-14T16:10:49.028Z,12.60
2023-03-14T16:13:18.135Z,12.59
2023-03-14T16:16:01.847Z,12.56
2023-03-14T16:18:32.907Z,12.49
2023-03-14T16:21:08.681Z,12.46
2023-03-14T16:23:38.070Z,12.44
2023-03-14T16:26:12.519Z,12.41
2023-03-14T16:28:42.306Z,12.37
2023-03-14T16:31:13.569Z,12.31
2023-03-14T16:33:42.836Z,12.23
2023-03-14T16:36:13.903Z,12.14
2023-03-14T16:38:44.734Z,12.06
2023-03-14T16:41:18.559Z,11.98
2023-03-14T16:43:52.645Z,11.89
2023-03-14T16:46:23.102Z,11.78
2023-03-14T16:48:52.151Z,11.67
2023-03-14T16:51:21.983Z,11.55
2023-03-14T16:53:51.660Z,11.42
2023-03-14T16:56:21.493Z,11.29
2023-03-14T16:58:51.447Z,11.16
2023-03-14T17:01:22.184Z,11.02
2023-03-14T17:03:52.709Z,10.89
2023-03-14T17:06:28.150Z,10.77
2023-03-14T17:09:00.331Z,10.65
2023-03-14T17:11:35.225Z,10.53
2023-03-14T17:14:06.571Z,10.44
2023-03-14T17:16:38.069Z,10.36
2023-03-14T17:19:07.396Z,10.29
2023-03-14T17:21:37.429Z,10.23
2023-03-14T17:24:07.640Z,10.17
2023-03-14T17:26:38.536Z,10.10
2023-03-14T17:29:09.566Z,10.03
2023-03-14T17:31:39.918Z,9.97
2023-03-14T17:34:09.876Z,9.91
2023-03-14T17:36:40.994Z,9.85
2023-03-14T17:39:11.288Z,9.80
2023-03-14T17:41:43.496Z,9.79
2023-03-14T17:44:14.236Z,9.82
2023-03-14T17:46:44.067Z,9.90
2023-03-14T17:49:15.061Z,9.97
2023-03-14T17:51:45.975Z,10.02
2023-03-14T17:54:16.183Z,10.05
2023-03-14T17:56:49.294Z,10.06
2023-03-14T17:59:19.897Z,10.06
2023-03-14T18:01:53.547Z,10.04
2023-03-14T18:04:24.183Z,10.01
2023-03-14T18:06:56.434Z,9.97
2023-03-14T18:09:25.853Z,9.91
2023-03-14T18:12:07.514Z,9.86
2023-03-14T18:14:41.148Z,9.80
2023-03-14T18:17:15.705Z,9.72
2023-03-14T18:19:48.380Z,9.63
2023-03-14T18:22:19.538Z,9.58
2023-03-14T18:24:50.458Z,9.53
2023-03-14T18:27:21.099Z,9.49
2023-03-14T18:29:53.456Z,9.45
2023-03-14T18:32:27.067Z,9.42
2023-03-14T18:35:00.208Z,9.42
2023-03-14T18:37:32.127Z,9.42
2023-03-14T18:40:07.856Z,9.42
2023-03-14T18:42:38.923Z,9.43
2023-03-14T18:45:12.538Z,9.44
2023-03-14T18:47:43.554Z,9.44
2023-03-14T18:50:14.810Z,9.42
2023-03-14T18:52:46.967Z,9.38
2023-03-14T18:55:24.179Z,9.34
2023-03-14T18:57:56.863Z,9.28
2023-03-14T19:00:28.432Z,9.23
2023-03-14T19:03:00.854Z,9.18
2023-03-14T19:05:37.812Z,9.13
2023-03-14T19:08:09.454Z,9.11
2023-03-14T19:10:40.511Z,9.08
2023-03-14T19:13:15.566Z,9.07
2023-03-14T19:15:50.193Z,9.08
2023-03-14T19:18:23.395Z,9.08
2023-03-14T19:21:04.430Z,9.08
2023-03-14T19:23:42.185Z,9.08
2023-03-14T19:26:16.679Z,9.09
2023-03-14T19:28:46.731Z,9.09
2023-03-14T19:31:22.026Z,9.11
2023-03-14T19:33:53.486Z,9.13
2023-03-14T19:36:38.899Z,9.16
2023-03-14T19:39:10.691Z,9.21
2023-03-14T19:41:43.093Z,9.32
2023-03-14T19:44:13.778Z,9.43
2023-03-14T19:46:46.115Z,9.51
2023-03-14T19:49:18.980Z,9.56
2023-03-14T19:51:52.238Z,9.60
2023-03-14T19:54:34.024Z,9.63
2023-03-14T19:57:08.126Z,9.27
2023-03-14T19:59:40.967Z,8.37
2023-03-14T20:02:21.024Z,7.72
2023-03-14T20:04:55.804Z,7.25
2023-03-14T20:07:29.001Z,6.96
2023-03-14T20:10:00.235Z,6.72
2023-03-14T20:12:33.865Z,6.51
2023-03-14T20:15:10.371Z,6.34
2023-03-14T20:17:40.982Z,6.20
2023-03-14T20:20:13.995Z,6.08
2023-03-14T20:22:45.696Z,5.98
2023-03-14T20:25:39.687Z,5.87
2023-03-14T20:28:11.534Z,5.73
2023-03-14T20:30:45.022Z,5.61
2023-03-14T20:33:19.384Z,5.49
2023-03-14T20:36:01.485Z,5.35
2023-03-14T20:38:32.679Z,5.21
2023-03-14T20:41:06.977Z,5.10
2023-03-14T20:43:38.105Z,4.93
2023-03-14T20:46:10.516Z,4.63
2023-03-14T20:48:45.189Z,4.25
2023-03-14T20:51:16.266Z,3.91
2023-03-14T20:53:46.998Z,3.66
2023-03-14T20:56:17.673Z,3.45
2023-03-14T20:58:48.979Z,3.26
2023-03-14T21:01:23.676Z,3.11
2023-03-14T21:03:55.343Z,2.99
2023-03-14T21:06:27.403Z,2.89
2023-03-14T21:08:58.100Z,2.82
2023-03-14T21:11:29.940Z,2.76
2023-03-14T21:14:01.081Z,2.71
2023-03-14T21:16:31.865Z,2.67
2023-03-14T21:19:02.448Z,2.63
2023-03-14T21:21:34.233Z,2.60
2023-03-14T21:24:05.604Z,2.57
2023-03-14T21:26:37.485Z,2.54
2023-03-14T21:29:07.518Z,2.51
2023-03-14T21:31:40.633Z,2.49
2023-03-14T21:34:14.132Z,2.47
2023-03-14T21:36:43.303Z,2.46
2023-03-14T21:39:15.162Z,2.44
2023-03-14T21:41:44.766Z,2.40
2023-03-14T21:44:16.486Z,2.35
2023-03-14T21:46:48.696Z,2.32
2023-03-14T21:49:18.215Z,2.28
2023-03-14T21:51:47.600Z,2.25
2023-03-14T21:54:17.556Z,2.21
2023-03-14T21:56:46.709Z,2.19
2023-03-14T21:59:15.642Z,2.17
2023-03-14T22:01:44.928Z,2.16
2023-03-14T22:04:13.792Z,2.14
2023-03-14T22:06:42.485Z,2.14
2023-03-14T22:09:11.154Z,2.12
2023-03-14T22:11:40.051Z,2.12
2023-03-14T22:14:08.584Z,2.12
2023-03-14T22:16:37.275Z,2.11
2023-03-14T22:19:06.206Z,2.11
2023-03-14T22:21:35.197Z,2.11
2023-03-14T22:24:04.491Z,2.13
2023-03-14T22:26:33.206Z,2.12
2023-03-14T22:29:01.882Z,2.13
2023-03-14T22:31:30.807Z,2.14
2023-03-14T22:43:05.347Z,2.14
2023-03-14T22:45:34.318Z,2.14
2023-03-14T22:48:03.150Z,2.14
2023-03-14T22:50:32.009Z,2.13
2023-03-14T22:53:03.781Z,2.12
2023-03-14T22:55:32.168Z,2.11
2023-03-14T22:58:01.546Z,2.10
2023-03-14T23:04:50.064Z,2.09
2023-03-14T23:07:19.454Z,2.09
2023-03-14T23:09:48.430Z,2.08
2023-03-14T23:12:18.241Z,2.07
2023-03-14T23:14:47.847Z,2.07
2023-03-14T23:17:17.119Z,2.07
2023-03-14T23:19:46.161Z,2.06
2023-03-14T23:22:15.748Z,2.06
2023-03-14T23:24:48.990Z,2.05
2023-03-14T23:27:18.699Z,2.05
2023-03-14T23:29:48.258Z,2.05
2023-03-14T23:32:18.270Z,2.03
2023-03-14T23:34:46.757Z,2.02
2023-03-14T23:37:15.349Z,2.00
2023-03-14T23:39:46.935Z,1.98
2023-03-14T23:42:16.201Z,1.95
2023-03-14T23:44:44.667Z,1.94
2023-03-14T23:47:13.451Z,1.91
2023-03-14T23:49:42.163Z,1.91
2023-03-14T23:52:11.315Z,1.90
2023-03-14T23:54:40.807Z,1.89
2023-03-14T23:57:10.451Z,1.88
2023-03-14T23:59:40.165Z,1.86
